createdAt,value
2018-12-06T00:00:00.218Z,10.17
2018-12-06T00:02:28.565Z,13.90
2018-12-06T00:04:56.804Z,10.83
2018-12-06T00:07:24.948Z,14.10
2018-12-06T00:09:53.109Z,10.17
2018-12-06T00:12:21.492Z,13.90
2018-12-06T00:14:49.760Z,11.73
2018-12-06T00:17:17.941Z,16.47
2018-12-06T00:19:46.136Z,14.27
2018-12-06T00:22:14.281Z,12.57
2018-12-06T00:24:42.453Z,9.17
2018-12-06T00:27:10.940Z,13.13
2018-12-06T00:29:39.060Z,10.03
2018-12-06T00:32:07.276Z,9.57
2018-12-06T00:34:35.485Z,16.17
2018-12-06T00:37:03.629Z,11.63
2018-12-06T00:39:31.800Z,12.50
2018-12-06T00:42:00.013Z,13.90
2018-12-06T00:44:28.153Z,11.37
2018-12-06T00:46:56.326Z,10.10
2018-12-06T00:49:24.540Z,11.57
2018-12-06T00:51:52.769Z,10.83
2018-12-06T00:54:20.945Z,11.27
2018-12-06T00:56:49.150Z,13.00
2018-12-06T00:59:17.291Z,8.97
2018-12-06T01:01:45.465Z,12.93
2018-12-06T01:04:13.768Z,10.10
2018-12-06T01:06:41.918Z,11.50
2018-12-06T01:09:10.189Z,15.33
2018-12-06T01:11:38.432Z,11.97
2018-12-06T01:14:06.741Z,10.17
2018-12-06T01:16:34.920Z,14.73
2018-12-06T01:19:03.120Z,13.93
2018-12-06T01:21:31.337Z,13.37
2018-12-06T01:23:59.541Z,12.10
2018-12-06T01:26:27.736Z,11.00
2018-12-06T01:28:55.847Z,7.93
2018-12-06T01:31:24.057Z,8.53
2018-12-06T01:33:52.266Z,12.13
2018-12-06T01:36:20.405Z,10.87
2018-12-06T01:38:48.689Z,10.53
2018-12-06T01:41:16.883Z,11.73
2018-12-06T01:43:45.132Z,10.50
2018-12-06T01:46:13.406Z,10.97
2018-12-06T01:48:41.601Z,8.80
2018-12-06T01:51:09.865Z,6.47
2018-12-06T01:53:38.133Z,10.13
2018-12-06T01:56:06.342Z,11.17
2018-12-06T01:58:34.478Z,10.33
2018-12-06T02:01:02.649Z,12.63
2018-12-06T02:03:30.852Z,14.47
2018-12-06T02:05:58.997Z,10.20
2018-12-06T02:08:27.261Z,11.27
2018-12-06T02:10:55.468Z,7.50
2018-12-06T02:13:23.620Z,10.87
2018-12-06T02:15:51.888Z,9.83
2018-12-06T02:18:20.658Z,9.70
2018-12-06T02:20:48.854Z,7.97
2018-12-06T02:23:17.030Z,9.77
2018-12-06T02:25:45.176Z,10.37
2018-12-06T02:28:13.288Z,8.37
2018-12-06T02:30:41.457Z,13.60
2018-12-06T02:33:09.645Z,14.40
2018-12-06T02:35:37.790Z,12.17
2018-12-06T02:38:06.069Z,13.07
2018-12-06T02:40:34.268Z,9.23
2018-12-06T02:43:02.414Z,9.90
2018-12-06T02:45:30.582Z,8.73
2018-12-06T02:47:58.784Z,13.03
2018-12-06T02:50:26.937Z,12.83
2018-12-06T02:52:55.108Z,8.10
2018-12-06T02:55:23.405Z,7.20
2018-12-06T02:57:51.597Z,9.50
2018-12-06T03:00:19.872Z,8.30
2018-12-06T03:02:48.987Z,11.23
2018-12-06T03:05:17.253Z,14.57
2018-12-06T03:07:45.557Z,9.00
2018-12-06T03:10:13.835Z,8.53
2018-12-06T03:12:42.082Z,11.57
2018-12-06T03:15:10.357Z,12.47
2018-12-06T03:17:38.764Z,10.30
2018-12-06T03:20:07.227Z,9.53
2018-12-06T03:22:35.497Z,10.23
2018-12-06T03:25:03.805Z,10.93
2018-12-06T03:27:32.155Z,10.60
2018-12-06T03:30:00.358Z,10.27
2018-12-06T03:32:28.714Z,8.77
2018-12-06T03:34:56.969Z,9.33
2018-12-06T03:37:25.140Z,10.57
2018-12-06T03:39:53.453Z,10.50
2018-12-06T03:42:21.702Z,15.23
2018-12-06T03:44:49.971Z,16.03
2018-12-06T03:47:18.306Z,9.17
2018-12-06T03:49:46.621Z,15.07
2018-12-06T03:52:14.801Z,12.87
2018-12-06T03:54:43.106Z,10.93
2018-12-06T03:57:11.353Z,16.50
2018-12-06T04:00:42.760Z,12.43
2018-12-06T04:03:10.981Z,12.03
2018-12-06T04:05:39.151Z,14.57
2018-12-06T04:08:07.356Z,15.23
2018-12-06T04:10:35.705Z,11.63
2018-12-06T04:13:03.984Z,12.83
2018-12-06T04:15:32.536Z,12.90
2018-12-06T04:18:00.833Z,8.70
2018-12-06T04:20:29.018Z,10.70
2018-12-06T04:22:57.220Z,7.47
2018-12-06T04:25:25.570Z,9.83
2018-12-06T04:27:53.836Z,15.50
2018-12-06T04:30:22.039Z,13.37
2018-12-06T04:32:50.306Z,14.00
2018-12-06T04:35:18.569Z,10.60
2018-12-06T04:37:46.905Z,10.17
2018-12-06T04:40:15.225Z,15.77
2018-12-06T04:42:43.515Z,11.33
2018-12-06T04:45:11.813Z,14.90
2018-12-06T04:47:40.149Z,14.07
2018-12-06T04:50:08.421Z,10.07
2018-12-06T04:52:36.658Z,11.40
2018-12-06T04:55:04.901Z,12.87
2018-12-06T04:57:33.258Z,12.93
2018-12-06T05:00:01.583Z,13.77
2018-12-06T05:02:29.909Z,14.87
2018-12-06T05:04:58.181Z,10.97
2018-12-06T05:07:26.392Z,12.30
2018-12-06T05:09:54.649Z,12.57
2018-12-06T05:12:22.922Z,11.20
2018-12-06T05:14:51.214Z,13.63
2018-12-06T05:17:19.462Z,12.67
2018-12-06T05:19:47.747Z,17.80
2018-12-06T05:22:16.045Z,11.80
2018-12-06T05:24:44.293Z,12.10
2018-12-06T05:27:12.557Z,14.80
2018-12-06T05:29:40.769Z,14.27
2018-12-06T05:32:09.026Z,21.33
2018-12-06T05:34:37.302Z,21.17
2018-12-06T05:37:05.608Z,26.17
2018-12-06T05:39:33.920Z,18.60
2018-12-06T05:42:02.121Z,13.47
2018-12-06T05:44:30.417Z,11.50
2018-12-06T05:46:58.673Z,13.27
2018-12-06T05:49:26.945Z,17.40
2018-12-06T05:51:55.240Z,17.43
2018-12-06T05:54:23.486Z,11.07
2018-12-06T05:56:51.771Z,15.90
2018-12-06T05:59:19.978Z,18.57
2018-12-06T06:01:48.225Z,14.90
2018-12-06T06:04:16.497Z,14.30
2018-12-06T06:06:44.790Z,10.67
2018-12-06T06:09:12.957Z,14.13
2018-12-06T06:11:41.217Z,13.47
2018-12-06T06:14:09.525Z,11.87
2018-12-06T06:16:37.785Z,14.67
2018-12-06T06:19:06.040Z,14.40
2018-12-06T06:21:34.354Z,8.20
2018-12-06T06:24:02.593Z,10.07
2018-12-06T06:26:30.766Z,12.93
2018-12-06T06:28:59.731Z,11.10
2018-12-06T06:31:27.943Z,12.13
2018-12-06T06:33:56.217Z,13.37
2018-12-06T06:36:24.519Z,16.37
2018-12-06T06:38:52.772Z,10.83
2018-12-06T06:41:21.062Z,12.27
2018-12-06T06:43:49.345Z,15.83
2018-12-06T06:46:17.590Z,12.93
2018-12-06T06:48:45.769Z,11.53
2018-12-06T06:51:14.085Z,12.53
2018-12-06T06:53:42.312Z,15.63
2018-12-06T06:56:10.577Z,13.70
2018-12-06T06:58:38.801Z,15.63
2018-12-06T07:01:07.045Z,15.43
2018-12-06T07:03:35.325Z,19.23
2018-12-06T07:06:03.625Z,12.97
2018-12-06T07:08:31.877Z,15.90
2018-12-06T07:11:00.142Z,15.30
2018-12-06T07:13:28.345Z,13.90
2018-12-06T07:15:56.689Z,17.17
2018-12-06T07:18:24.870Z,14.73
2018-12-06T07:20:55.437Z,15.77
2018-12-06T07:23:23.677Z,15.63
2018-12-06T07:25:51.960Z,18.73
2018-12-06T07:28:20.257Z,15.53
2018-12-06T07:30:48.426Z,18.07
2018-12-06T07:33:16.721Z,17.83
2018-12-06T07:35:45.062Z,15.37
2018-12-06T07:38:13.325Z,18.00
2018-12-06T07:40:41.506Z,17.83
2018-12-06T07:43:09.814Z,15.00
2018-12-06T07:45:43.366Z,13.80
2018-12-06T07:48:11.590Z,11.73
2018-12-06T07:50:39.834Z,15.93
2018-12-06T07:53:08.869Z,13.40
2018-12-06T07:55:37.161Z,16.30
2018-12-06T07:58:06.388Z,16.20
2018-12-06T08:00:36.497Z,16.30
2018-12-06T08:03:04.705Z,20.37
2018-12-06T08:05:32.973Z,18.73
2018-12-06T08:08:01.665Z,15.00
2018-12-06T08:10:29.942Z,18.47
2018-12-06T08:12:58.217Z,15.50
2018-12-06T08:15:28.145Z,15.87
2018-12-06T08:17:56.405Z,16.07
2018-12-06T08:20:24.669Z,18.43
2018-12-06T08:22:57.553Z,19.23
2018-12-06T08:25:25.828Z,16.13
2018-12-06T08:27:55.665Z,19.97
2018-12-06T08:30:28.437Z,15.03
2018-12-06T08:32:56.697Z,16.90
2018-12-06T08:35:24.983Z,15.93
2018-12-06T08:37:53.278Z,17.03
2018-12-06T08:40:22.295Z,14.67
2018-12-06T08:42:51.521Z,10.87
2018-12-06T08:45:19.850Z,16.00
2018-12-06T08:47:50.385Z,15.60
2018-12-06T08:50:21.281Z,17.40
2018-12-06T08:52:49.677Z,20.60
2018-12-06T08:55:17.937Z,14.97
2018-12-06T08:57:46.133Z,17.00
2018-12-06T09:00:14.395Z,14.47
2018-12-06T09:02:42.661Z,16.67
2018-12-06T09:05:16.181Z,15.43
2018-12-06T09:07:49.938Z,23.43
2018-12-06T09:10:18.501Z,21.67
2018-12-06T09:12:46.730Z,20.60
2018-12-06T09:15:15.002Z,18.43
2018-12-06T09:17:47.533Z,17.60
2018-12-06T09:20:15.761Z,17.10
2018-12-06T09:22:49.070Z,18.03
2018-12-06T09:25:21.035Z,20.83
2018-12-06T09:27:48.373Z,14.87
2018-12-06T09:30:16.645Z,17.40
2018-12-06T09:32:44.892Z,25.93
2018-12-06T09:35:15.196Z,16.07
2018-12-06T09:37:43.409Z,16.80
2018-12-06T09:40:15.434Z,22.00
2018-12-06T09:42:43.669Z,15.57
2018-12-06T09:45:18.897Z,17.87
2018-12-06T09:47:48.084Z,17.83
2018-12-06T09:50:16.362Z,15.70
2018-12-06T09:52:44.658Z,17.63
2018-12-06T09:55:12.913Z,16.33
2018-12-06T09:57:45.705Z,14.53
2018-12-06T10:00:16.397Z,16.90
2018-12-06T10:02:44.814Z,15.73
2018-12-06T10:05:13.029Z,18.97
2018-12-06T10:07:41.353Z,16.10
2018-12-06T10:10:09.524Z,18.43
2018-12-06T10:12:43.305Z,15.73
2018-12-06T10:15:11.525Z,15.63
2018-12-06T10:17:39.786Z,15.53
2018-12-06T10:20:13.101Z,16.53
2018-12-06T10:22:41.349Z,18.97
2018-12-06T10:25:09.639Z,18.50
2018-12-06T10:27:42.525Z,18.87
2018-12-06T10:30:19.761Z,17.30
2018-12-06T10:32:47.961Z,19.50
2018-12-06T10:35:16.913Z,25.43
2018-12-06T10:37:45.141Z,19.30
2018-12-06T10:40:13.437Z,20.87
2018-12-06T10:42:42.013Z,22.30
2018-12-06T10:45:10.269Z,22.87
2018-12-06T10:47:38.577Z,21.13
2018-12-06T10:50:06.920Z,21.10
2018-12-06T10:52:35.205Z,19.73
2018-12-06T10:55:03.505Z,18.17
2018-12-06T10:57:31.762Z,21.10
2018-12-06T11:00:01.041Z,22.57
2018-12-06T11:02:33.497Z,21.83
2018-12-06T11:05:04.086Z,20.97
2018-12-06T11:07:32.734Z,16.87
2018-12-06T11:10:00.932Z,21.37
2018-12-06T11:12:31.937Z,17.07
2018-12-06T11:15:00.202Z,17.47
2018-12-06T11:17:28.409Z,20.40
2018-12-06T11:19:56.712Z,17.30
2018-12-06T11:22:25.881Z,16.17
2018-12-06T11:24:54.149Z,15.47
2018-12-06T11:27:22.511Z,16.90
2018-12-06T11:29:50.822Z,17.37
2018-12-06T11:32:18.986Z,21.30
2018-12-06T11:34:47.585Z,21.33
2018-12-06T11:37:15.847Z,19.07
2018-12-06T11:39:44.120Z,19.80
2018-12-06T11:42:12.409Z,19.70
2018-12-06T11:44:44.893Z,20.83
2018-12-06T11:47:13.182Z,18.40
2018-12-06T11:49:41.433Z,19.00
2018-12-06T11:52:09.702Z,19.00
2018-12-06T11:54:37.998Z,23.67
2018-12-06T11:57:06.245Z,20.00
2018-12-06T11:59:36.393Z,20.43
2018-12-06T12:02:09.963Z,21.07
2018-12-06T12:04:35.113Z,19.60
2018-12-06T12:07:03.346Z,17.53
2018-12-06T12:09:31.651Z,18.00
2018-12-06T12:11:59.997Z,15.63
2018-12-06T12:14:28.279Z,16.20
2018-12-06T12:16:56.577Z,22.23
2018-12-06T12:19:26.537Z,18.57
2018-12-06T12:21:54.737Z,17.53
2018-12-06T12:24:23.033Z,14.60
2018-12-06T12:26:51.294Z,15.57
2018-12-06T12:29:21.301Z,16.50
2018-12-06T12:31:49.618Z,17.47
2018-12-06T12:34:17.866Z,18.30
2018-12-06T12:36:46.903Z,15.37
2018-12-06T12:39:15.238Z,16.80
2018-12-06T12:41:43.506Z,16.60
2018-12-06T12:44:11.780Z,16.27
2018-12-06T12:46:40.086Z,19.40
2018-12-06T12:49:08.335Z,27.30
2018-12-06T12:51:36.598Z,19.80
2018-12-06T12:54:04.808Z,19.43
2018-12-06T12:56:33.057Z,19.37
2018-12-06T12:59:01.333Z,19.77
2018-12-06T13:01:29.629Z,17.93
2018-12-06T13:03:57.877Z,18.37
2018-12-06T13:06:26.157Z,19.50
2018-12-06T13:08:54.457Z,18.03
2018-12-06T13:11:22.809Z,17.03
2018-12-06T13:13:51.084Z,20.73
2018-12-06T13:16:19.392Z,16.33
2018-12-06T13:18:47.641Z,21.10
2018-12-06T13:21:15.932Z,22.27
2018-12-06T13:23:44.226Z,19.23
2018-12-06T13:26:12.794Z,18.63
2018-12-06T13:28:41.153Z,22.00
2018-12-06T13:31:09.445Z,19.43
2018-12-06T13:33:37.633Z,20.10
2018-12-06T13:36:05.905Z,19.33
2018-12-06T13:38:34.629Z,19.53
2018-12-06T13:41:07.757Z,19.47
2018-12-06T13:43:36.061Z,17.80
2018-12-06T13:46:04.413Z,18.67
2018-12-06T13:48:33.285Z,18.70
2018-12-06T13:51:01.502Z,18.50
2018-12-06T13:53:29.750Z,19.13
2018-12-06T13:55:58.026Z,19.30
2018-12-06T13:58:26.337Z,21.47
2018-12-06T14:00:59.732Z,18.30
2018-12-06T14:03:28.581Z,19.70
2018-12-06T14:05:56.853Z,22.47
2018-12-06T14:08:25.142Z,17.53
2018-12-06T14:10:53.446Z,19.87
2018-12-06T14:13:23.760Z,20.93
2018-12-06T14:15:51.909Z,21.23
2018-12-06T14:18:20.301Z,18.87
2018-12-06T14:20:48.559Z,21.07
2018-12-06T14:23:16.833Z,31.20
2018-12-06T14:25:45.033Z,35.17
2018-12-06T14:28:13.285Z,33.73
2018-12-06T14:30:41.566Z,33.17
2018-12-06T14:33:09.870Z,29.60
2018-12-06T14:35:38.119Z,26.43
2018-12-06T14:38:06.389Z,24.63
2018-12-06T14:40:34.698Z,26.30
2018-12-06T14:43:03.029Z,24.97
2018-12-06T14:45:31.531Z,27.20
2018-12-06T14:48:00.110Z,25.77
2018-12-06T14:50:28.383Z,22.53
2018-12-06T14:52:56.898Z,22.30
2018-12-06T14:55:25.281Z,18.93
2018-12-06T14:57:53.509Z,20.73
2018-12-06T15:00:22.205Z,21.17
2018-12-06T15:02:50.520Z,20.07
2018-12-06T15:05:18.765Z,21.37
2018-12-06T15:07:47.029Z,19.63
2018-12-06T15:10:15.338Z,20.33
2018-12-06T15:12:43.585Z,22.50
2018-12-06T15:15:11.885Z,20.80
2018-12-06T15:17:41.913Z,25.07
2018-12-06T15:20:11.409Z,23.43
2018-12-06T15:22:40.042Z,23.17
2018-12-06T15:25:08.524Z,25.90
2018-12-06T15:27:38.017Z,22.20
2018-12-06T15:30:08.757Z,22.80
2018-12-06T15:32:37.606Z,23.83
2018-12-06T15:35:06.390Z,21.27
2018-12-06T15:37:34.705Z,23.13
2018-12-06T15:40:02.921Z,23.97
2018-12-06T15:42:31.205Z,22.40
2018-12-06T15:44:59.501Z,21.83
2018-12-06T15:47:27.753Z,21.87
2018-12-06T15:49:56.023Z,22.83
2018-12-06T15:52:24.330Z,21.03
2018-12-06T15:54:52.718Z,18.67
2018-12-06T15:57:20.950Z,18.03
2018-12-06T15:59:49.270Z,19.27
2018-12-06T16:02:17.522Z,19.37
2018-12-06T16:04:45.883Z,17.23
2018-12-06T16:07:14.177Z,18.97
2018-12-06T16:09:42.430Z,22.03
2018-12-06T16:12:10.722Z,17.23
2018-12-06T16:14:39.005Z,19.03
2018-12-06T16:17:07.258Z,19.93
2018-12-06T16:19:35.546Z,16.60
2018-12-06T16:22:04.146Z,21.17
2018-12-06T16:24:32.389Z,17.10
2018-12-06T16:27:01.169Z,17.70
2018-12-06T16:29:29.402Z,17.57
2018-12-06T16:31:57.961Z,17.70
2018-12-06T16:34:26.180Z,20.63
2018-12-06T16:36:54.414Z,17.20
2018-12-06T16:39:22.669Z,18.17
2018-12-06T16:41:50.933Z,19.20
2018-12-06T16:44:19.237Z,17.10
2018-12-06T16:46:47.488Z,18.07
2018-12-06T16:49:15.773Z,17.37
2018-12-06T16:51:44.068Z,21.17
2018-12-06T16:54:12.309Z,61.20
2018-12-06T16:56:40.585Z,42.70
2018-12-06T16:59:08.893Z,39.43
2018-12-06T17:01:37.149Z,35.53
2018-12-06T17:04:05.413Z,32.53
2018-12-06T17:06:33.713Z,28.53
2018-12-06T17:09:01.969Z,27.57
2018-12-06T17:11:31.245Z,26.17
2018-12-06T17:13:59.477Z,24.03
2018-12-06T17:16:27.822Z,25.03
2018-12-06T17:19:00.502Z,27.20
2018-12-06T17:21:28.782Z,26.90
2018-12-06T17:23:57.050Z,25.33
2018-12-06T17:26:25.352Z,29.83
2018-12-06T17:28:53.602Z,27.90
2018-12-06T17:31:21.977Z,29.67
2018-12-06T17:33:52.825Z,27.97
2018-12-06T17:36:21.025Z,17.83
2018-12-06T17:38:49.370Z,20.10
2018-12-06T17:41:17.716Z,20.50
2018-12-06T17:43:49.397Z,19.40
2018-12-06T17:46:18.469Z,19.73
2018-12-06T17:48:46.672Z,16.97
2018-12-06T17:51:15.361Z,17.83
2018-12-06T17:53:43.569Z,16.17
2018-12-06T17:56:12.563Z,18.07
2018-12-06T17:58:40.897Z,25.53
2018-12-06T18:01:09.594Z,18.60
2018-12-06T18:03:37.869Z,20.17
2018-12-06T18:06:06.138Z,20.03
2018-12-06T18:08:36.451Z,17.80
2018-12-06T18:11:04.728Z,15.13
2018-12-06T18:13:34.212Z,16.07
2018-12-06T18:16:04.090Z,15.17
2018-12-06T18:18:32.385Z,14.23
2018-12-06T18:21:01.913Z,15.30
2018-12-06T18:23:30.668Z,15.20
2018-12-06T18:26:00.254Z,12.23
2018-12-06T18:28:28.502Z,15.43
2018-12-06T18:30:59.297Z,14.80
2018-12-06T18:33:27.517Z,13.37
2018-12-06T18:35:56.859Z,11.40
2018-12-06T18:38:26.374Z,15.47
2018-12-06T18:40:55.213Z,15.17
2018-12-06T18:43:25.668Z,13.40
2018-12-06T18:45:54.030Z,13.83
2018-12-06T18:48:22.293Z,15.63
2018-12-06T18:50:50.594Z,17.03
2018-12-06T18:53:18.845Z,16.23
2018-12-06T18:55:47.114Z,19.83
2018-12-06T18:58:15.427Z,16.30
2018-12-06T19:00:43.678Z,14.83
2018-12-06T19:03:11.953Z,19.03
2018-12-06T19:05:40.405Z,15.30
2018-12-06T19:08:09.001Z,11.77
2018-12-06T19:10:37.386Z,15.17
2018-12-06T19:13:05.771Z,12.57
2018-12-06T19:15:34.045Z,14.80
2018-12-06T19:18:02.688Z,14.50
2018-12-06T19:20:30.943Z,16.83
2018-12-06T19:22:59.178Z,13.30
2018-12-06T19:25:28.280Z,11.03
2018-12-06T19:27:56.933Z,13.73
2018-12-06T19:30:25.356Z,13.10
2018-12-06T19:32:57.810Z,13.17
2018-12-06T19:35:23.840Z,15.93
2018-12-06T19:37:52.118Z,11.67
2018-12-06T19:40:20.403Z,15.23
2018-12-06T19:42:56.344Z,12.20
2018-12-06T19:45:31.033Z,11.07
2018-12-06T19:47:59.401Z,13.10
2018-12-06T19:50:27.633Z,11.30
2018-12-06T19:52:56.676Z,14.50
2018-12-06T19:55:24.922Z,16.07
2018-12-06T19:57:53.221Z,17.10
2018-12-06T20:00:21.544Z,14.80
2018-12-06T20:02:49.835Z,16.40
2018-12-06T20:05:18.094Z,16.80
2018-12-06T20:07:48.244Z,19.97
2018-12-06T20:10:20.738Z,16.97
2018-12-06T20:12:48.971Z,17.53
2018-12-06T20:15:17.242Z,21.33
2018-12-06T20:18:15.874Z,20.60
2018-12-06T20:20:44.106Z,21.03
2018-12-06T20:23:12.417Z,20.57
2018-12-06T20:25:40.756Z,19.27
2018-12-06T20:28:15.712Z,16.23
2018-12-06T20:30:43.981Z,15.03
2018-12-06T20:33:12.234Z,15.10
2018-12-06T20:35:40.491Z,16.33
2018-12-06T20:38:08.845Z,15.00
2018-12-06T20:40:37.235Z,14.87
2018-12-06T20:43:05.470Z,15.37
2018-12-06T20:45:33.738Z,15.57
2018-12-06T20:48:02.114Z,13.07
2018-12-06T20:50:30.480Z,12.37
2018-12-06T20:52:58.661Z,14.43
2018-12-06T20:55:26.913Z,14.07
2018-12-06T20:57:56.850Z,16.47
2018-12-06T21:00:26.931Z,13.40
2018-12-06T21:02:56.914Z,13.87
2018-12-06T21:05:27.145Z,14.60
2018-12-06T21:07:57.457Z,13.43
2018-12-06T21:10:27.560Z,12.47
2018-12-06T21:12:57.622Z,12.40
2018-12-06T21:15:27.524Z,11.87
2018-12-06T21:17:57.531Z,12.53
2018-12-06T21:20:27.635Z,12.43
2018-12-06T21:22:57.846Z,13.07
2018-12-06T21:25:27.813Z,13.50
2018-12-06T21:27:57.778Z,12.77
2018-12-06T21:30:27.890Z,13.10
2018-12-06T21:32:57.951Z,13.90
2018-12-06T21:35:27.947Z,13.30
2018-12-06T21:37:57.922Z,14.27
2018-12-06T21:40:28.196Z,13.20
2018-12-06T21:42:58.091Z,13.43
2018-12-06T21:45:28.013Z,11.13
2018-12-06T21:47:57.543Z,15.30
2018-12-06T21:50:27.000Z,10.97
2018-12-06T21:52:57.034Z,11.90
2018-12-06T21:55:26.383Z,10.87
2018-12-06T21:57:56.774Z,10.83
2018-12-06T22:00:26.812Z,11.80
2018-12-06T22:02:56.370Z,11.33
2018-12-06T22:05:25.973Z,15.47
2018-12-06T22:07:56.222Z,11.53
2018-12-06T22:10:24.441Z,12.17
2018-12-06T22:12:52.637Z,10.80
2018-12-06T22:15:20.903Z,11.43
2018-12-06T22:17:49.082Z,12.37
2018-12-06T22:20:17.363Z,13.87
2018-12-06T22:22:45.614Z,11.63
2018-12-06T22:25:13.789Z,11.73
2018-12-06T22:27:42.085Z,11.10
2018-12-06T22:30:11.706Z,12.07
2018-12-06T22:32:40.251Z,11.40
2018-12-06T22:35:08.556Z,12.10
2018-12-06T22:37:37.899Z,13.20
2018-12-06T22:40:06.493Z,12.77
2018-12-06T22:42:34.704Z,11.27
2018-12-06T22:45:14.282Z,11.97
2018-12-06T22:47:42.525Z,12.03
2018-12-06T22:50:10.777Z,11.77
2018-12-06T22:52:38.944Z,12.93
2018-12-06T22:55:07.173Z,11.67
2018-12-06T22:57:35.412Z,12.13
2018-12-06T23:00:04.053Z,11.53
2018-12-06T23:02:32.277Z,11.97
2018-12-06T23:05:00.530Z,13.57
2018-12-06T23:07:28.705Z,13.00
2018-12-06T23:09:56.904Z,13.47
2018-12-06T23:12:25.153Z,14.33
2018-12-06T23:14:53.441Z,13.67
2018-12-06T23:17:21.636Z,18.17
2018-12-06T23:19:49.876Z,13.50
2018-12-06T23:22:18.051Z,13.53
2018-12-06T23:24:46.357Z,14.60
2018-12-06T23:27:14.789Z,13.80
2018-12-06T23:29:42.986Z,12.43
2018-12-06T23:32:11.181Z,13.07
2018-12-06T23:34:39.509Z,15.10
2018-12-06T23:37:07.709Z,14.03
2018-12-06T23:39:35.908Z,14.50
2018-12-06T23:42:04.157Z,13.37
2018-12-06T23:44:32.333Z,13.50
2018-12-06T23:47:00.540Z,13.23
2018-12-06T23:49:28.882Z,13.17
2018-12-06T23:51:57.058Z,14.47
2018-12-06T23:54:25.250Z,13.70
2018-12-06T23:56:53.510Z,11.53
2018-12-06T23:59:21.786Z,12.97
